Time;durP1;ratioP1;P1;durP2;ratioP2;P2;SDS_P1;SDS_P2;PMS_P1;PMS_P2;Temp;Humidity;BMP_temperature;BMP_pressure;BME280_temperature;BME280_humidity;BME280_pressure;Samples;Min_cycle;Max_cycle;Signal;HPM_P1;HPM_P2
2021/09/11 00:01:59;;;;;;;54.17;33.63;;;;;;;17.33;100.00;100636.59;5036373;28;20183;-75
2021/09/11 00:04:24;;;;;;;89.67;39.73;;;;;;;17.36;100.00;100639.03;5020574;28;20577;-74
2021/09/11 00:06:49;;;;;;;66.47;31.63;;;;;;;17.39;100.00;100637.91;5036687;28;20175;-75
2021/09/11 00:09:15;;;;;;;71.80;33.67;;;;;;;17.44;100.00;100638.38;5054173;28;20199;-75
2021/09/11 00:11:40;;;;;;;50.10;31.27;;;;;;;17.38;100.00;100636.22;5053820;28;20191;-75
2021/09/11 00:14:05;;;;;;;50.73;28.80;;;;;;;17.31;100.00;100632.31;5038099;28;20550;-75
2021/09/11 00:16:31;;;;;;;51.83;29.83;;;;;;;17.27;100.00;100630.88;5036682;28;20186;-76
2021/09/11 00:18:56;;;;;;;51.53;31.40;;;;;;;17.25;100.00;100632.84;5036059;28;20184;-75
2021/09/11 00:21:21;;;;;;;53.03;30.17;;;;;;;17.18;100.00;100633.34;5019836;28;20167;-75
2021/09/11 00:23:47;;;;;;;70.40;35.30;;;;;;;17.21;100.00;100631.38;5035946;28;20203;-75
2021/09/11 00:26:12;;;;;;;45.53;29.10;;;;;;;17.19;100.00;100632.38;5036239;28;20179;-75
2021/09/11 00:28:37;;;;;;;44.50;29.30;;;;;;;17.22;100.00;100639.34;5036116;28;20183;-75
2021/09/11 00:31:03;;;;;;;65.27;31.43;;;;;;;17.18;100.00;100627.97;5037185;28;20265;-73
2021/09/11 00:33:28;;;;;;;50.93;28.47;;;;;;;17.21;100.00;100628.69;5039293;28;20594;-75
2021/09/11 00:35:54;;;;;;;31.67;24.77;;;;;;;17.19;100.00;100631.53;5039023;28;20180;-75
2021/09/11 00:38:19;;;;;;;42.27;26.20;;;;;;;17.22;100.00;100631.25;5035780;28;20191;-76
2021/09/11 00:40:44;;;;;;;35.70;25.07;;;;;;;17.24;100.00;100631.13;5035928;28;20195;-74
2021/09/11 00:43:10;;;;;;;45.97;27.87;;;;;;;17.29;100.00;100632.44;5052941;28;20214;-74
2021/09/11 00:45:35;;;;;;;59.80;30.97;;;;;;;17.40;100.00;100642.31;5035811;28;20207;-75
2021/09/11 00:48:00;;;;;;;71.37;34.07;;;;;;;17.41;100.00;100635.94;5035849;28;20184;-75
2021/09/11 00:50:26;;;;;;;43.60;29.53;;;;;;;17.44;100.00;100641.06;5052416;28;20195;-75
2021/09/11 00:52:51;;;;;;;50.43;30.57;;;;;;;17.47;100.00;100635.47;5035644;28;20172;-74
2021/09/11 00:55:17;;;;;;;45.00;29.13;;;;;;;17.51;100.00;100642.31;5035711;28;20179;-75
2021/09/11 00:57:49;;;;;;;40.70;28.47;;;;;;;17.59;100.00;100644.34;5052336;28;20258;-74
2021/09/11 01:00:14;;;;;;;35.37;27.43;;;;;;;17.67;100.00;100648.13;5052303;28;20196;-74
2021/09/11 01:02:40;;;;;;;39.57;27.40;;;;;;;17.66;100.00;100629.34;5052025;28;20598;-75
2021/09/11 01:05:07;;;;;;;40.27;28.03;;;;;;;17.65;100.00;100625.78;5018962;28;20210;-74
2021/09/11 01:07:34;;;;;;;39.77;27.37;;;;;;;17.64;100.00;100618.66;5019280;28;20203;-75
2021/09/11 01:09:59;;;;;;;60.33;28.10;;;;;;;17.65;100.00;100619.53;5035279;28;20204;-74
2021/09/11 01:12:26;;;;;;;34.07;25.47;;;;;;;17.64;100.00;100613.28;5053147;28;20171;-75
2021/09/11 01:14:52;;;;;;;33.47;24.03;;;;;;;17.65;100.00;100614.97;5035176;28;20190;-74
2021/09/11 01:17:17;;;;;;;29.17;22.57;;;;;;;17.67;100.00;100609.47;5052298;28;20698;-74
2021/09/11 01:19:43;;;;;;;32.30;23.83;;;;;;;17.65;100.00;100609.59;5018657;28;20211;-75
2021/09/11 01:22:17;;;;;;;33.23;25.50;;;;;;;17.68;100.00;100606.66;5051836;28;20171;-75
2021/09/11 01:24:57;;;;;;;38.00;25.10;;;;;;;17.70;100.00;100603.81;5052934;28;20199;-74
2021/09/11 01:27:23;;;;;;;38.67;26.53;;;;;;;17.71;100.00;100605.53;5035221;28;20514;-74
2021/09/11 01:29:56;;;;;;;34.40;24.73;;;;;;;17.71;100.00;100598.28;5018619;28;20199;-75
2021/09/11 01:32:22;;;;;;;53.23;31.03;;;;;;;17.66;100.00;100603.19;5035211;28;20255;-74
2021/09/11 01:34:48;;;;;;;41.57;27.63;;;;;;;17.56;100.00;100594.19;5035099;28;20240;-74
2021/09/11 01:37:14;;;;;;;39.53;27.50;;;;;;;17.49;100.00;100598.41;5035022;28;20187;-74
2021/09/11 01:39:40;;;;;;;70.93;33.47;;;;;;;17.47;100.00;100608.47;5035092;28;20203;-74
2021/09/11 01:42:05;;;;;;;67.13;32.50;;;;;;;17.40;100.00;100607.25;5035125;28;20179;-74
2021/09/11 01:44:30;;;;;;;43.37;28.33;;;;;;;17.30;100.00;100603.63;5035054;28;20203;-74
2021/09/11 01:46:56;;;;;;;63.77;31.93;;;;;;;17.23;100.00;100610.53;5051675;28;20180;-75
2021/09/11 01:49:21;;;;;;;47.60;28.57;;;;;;;17.24;100.00;100618.50;5052645;28;20199;-75
2021/09/11 01:51:47;;;;;;;55.20;28.27;;;;;;;17.23;100.00;100610.53;5056025;28;20249;-73
2021/09/11 01:54:12;;;;;;;57.23;31.93;;;;;;;17.23;100.00;100621.31;5038921;28;20203;-73
2021/09/11 01:56:37;;;;;;;56.00;30.43;;;;;;;17.22;100.00;100614.22;5057140;28;20589;-74
2021/09/11 01:59:02;;;;;;;50.73;30.80;;;;;;;17.17;100.00;100615.47;5038870;28;20187;-74
2021/09/11 02:01:28;;;;;;;56.03;30.97;;;;;;;17.12;100.00;100631.19;5057001;28;20174;-74
2021/09/11 02:03:53;;;;;;;44.83;26.97;;;;;;;17.14;100.00;100636.44;5056577;28;20203;-74
2021/09/11 02:06:18;;;;;;;35.63;24.77;;;;;;;17.14;100.00;100626.50;5039105;28;20179;-74
2021/09/11 02:08:44;;;;;;;40.13;27.07;;;;;;;17.13;100.00;100632.88;5038594;28;20228;-73
2021/09/11 02:11:09;;;;;;;38.23;26.83;;;;;;;17.14;100.00;100633.75;5055379;28;20222;-74
2021/09/11 02:13:34;;;;;;;30.10;24.03;;;;;;;17.23;100.00;100643.75;5038627;28;20187;-74
2021/09/11 02:16:02;;;;;;;31.37;24.77;;;;;;;17.26;100.00;100638.09;5038434;28;20186;-74
2021/09/11 02:18:27;;;;;;;48.40;27.53;;;;;;;17.22;100.00;100630.41;5022455;28;20218;-74
2021/09/11 02:20:55;;;;;;;36.20;25.37;;;;;;;17.19;100.00;100632.38;5038507;28;20206;-75
2021/09/11 02:23:20;;;;;;;34.63;25.77;;;;;;;17.27;100.00;100641.66;5055378;28;20178;-73
2021/09/11 02:25:45;;;;;;;31.10;24.53;;;;;;;17.24;100.00;100633.81;5056310;28;20175;-73
2021/09/11 02:28:11;;;;;;;61.73;30.27;;;;;;;17.19;100.00;100628.81;5021920;28;20195;-74
2021/09/11 02:30:36;;;;;;;47.97;28.07;;;;;;;17.15;100.00;100627.38;5038531;28;20203;-74
2021/09/11 02:33:01;;;;;;;31.87;25.07;;;;;;;17.18;100.00;100636.06;5038537;28;20184;-73
2021/09/11 02:35:27;;;;;;;32.37;24.60;;;;;;;17.19;100.00;100642.31;5038276;28;20183;-74
2021/09/11 02:37:52;;;;;;;32.27;24.50;;;;;;;17.21;100.00;100639.47;5056379;28;20591;-75
2021/09/11 02:40:17;;;;;;;48.33;27.37;;;;;;;17.10;100.00;100637.69;5058361;28;20195;-75
2021/09/11 02:42:43;;;;;;;31.87;24.43;;;;;;;17.09;100.00;100646.72;5040862;28;20206;-74
2021/09/11 02:45:09;;;;;;;35.37;24.80;;;;;;;17.10;100.00;100638.53;5040356;28;20199;-74
2021/09/11 02:47:34;;;;;;;31.13;22.53;;;;;;;17.13;100.00;100640.97;5046033;28;20234;-73
2021/09/11 02:49:59;;;;;;;31.97;24.27;;;;;;;17.10;100.00;100633.16;5045021;28;20196;-74
2021/09/11 02:52:24;;;;;;;34.83;23.00;;;;;;;17.09;100.00;100646.72;5061588;28;20176;-74
2021/09/11 02:54:50;;;;;;;34.20;25.33;;;;;;;17.09;100.00;100641.34;5062219;28;20172;-74
2021/09/11 02:57:15;;;;;;;42.57;27.23;;;;;;;17.08;100.00;100645.88;5061685;28;20180;-74
2021/09/11 02:59:40;;;;;;;31.87;23.80;;;;;;;17.08;100.00;100650.41;5049123;28;20214;-74
2021/09/11 03:02:06;;;;;;;33.77;24.57;;;;;;;17.07;100.00;100657.63;5056257;28;20184;-74
2021/09/11 03:04:31;;;;;;;33.17;23.07;;;;;;;17.17;100.00;100666.72;5054759;28;20199;-74
2021/09/11 03:06:56;;;;;;;30.67;23.83;;;;;;;17.27;100.00;100672.19;5055157;28;20185;-73
2021/09/11 03:09:21;;;;;;;28.83;23.00;;;;;;;17.29;100.00;100663.97;5054536;28;20749;-74
2021/09/11 03:11:47;;;;;;;35.93;26.17;;;;;;;17.28;100.00;100659.56;5054508;28;20621;-74
2021/09/11 03:14:12;;;;;;;44.57;27.13;;;;;;;17.23;100.00;100651.84;5037619;28;20182;-74
2021/09/11 03:16:37;;;;;;;29.83;24.80;;;;;;;17.26;100.00;100651.59;5056191;28;20171;-75
2021/09/11 03:19:03;;;;;;;30.60;25.47;;;;;;;17.27;100.00;100656.00;5055364;28;20198;-74
2021/09/11 03:21:28;;;;;;;35.17;24.93;;;;;;;17.28;100.00;100654.16;5037745;28;20171;-74
2021/09/11 03:23:53;;;;;;;41.37;26.00;;;;;;;17.24;100.00;100642.78;5037498;28;20229;-74
2021/09/11 03:26:18;;;;;;;38.53;25.47;;;;;;;17.16;100.00;100648.81;5020917;28;20175;-74
2021/09/11 03:28:44;;;;;;;56.17;29.10;;;;;;;17.10;100.00;100649.31;5054024;28;20167;-74
2021/09/11 03:31:09;;;;;;;55.10;31.50;;;;;;;17.06;100.00;100642.44;5037151;28;20226;-74
2021/09/11 03:33:34;;;;;;;71.47;34.07;;;;;;;17.03;100.00;100631.91;5053798;28;20172;-74
2021/09/11 03:36:00;;;;;;;60.60;32.33;;;;;;;17.02;100.00;100651.78;5054390;28;20341;-74
2021/09/11 03:38:25;;;;;;;53.00;29.37;;;;;;;17.02;100.00;100654.47;5053820;28;20183;-74
2021/09/11 03:40:50;;;;;;;53.60;29.20;;;;;;;17.04;100.00;100644.41;5053739;28;20229;-74
2021/09/11 03:43:15;;;;;;;62.07;31.40;;;;;;;17.03;100.00;100642.69;5053813;28;20176;-74
2021/09/11 03:45:41;;;;;;;52.13;31.63;;;;;;;17.01;100.00;100643.81;5054955;28;20199;-73
2021/09/11 03:48:06;;;;;;;45.50;29.03;;;;;;;17.01;100.00;100650.06;5054948;28;20538;-74
2021/09/11 03:50:31;;;;;;;57.30;32.17;;;;;;;17.04;100.00;100651.66;5053718;28;20234;-74
2021/09/11 03:52:57;;;;;;;58.73;32.60;;;;;;;17.05;100.00;100647.97;5036706;28;20180;-74
2021/09/11 03:55:22;;;;;;;67.80;34.80;;;;;;;17.02;100.00;100632.91;5054619;28;20174;-73
2021/09/11 03:57:47;;;;;;;54.63;31.87;;;;;;;17.03;100.00;100644.53;5053455;28;20171;-74
2021/09/11 04:00:13;;;;;;;68.83;32.33;;;;;;;17.02;100.00;100645.53;5053344;28;20210;-73
2021/09/11 04:02:38;;;;;;;39.53;27.30;;;;;;;16.98;100.00;100633.28;5052958;28;20286;-74
2021/09/11 04:05:04;;;;;;;59.67;30.97;;;;;;;16.93;100.00;100635.50;5036355;28;20210;-73
2021/09/11 04:07:29;;;;;;;53.00;31.03;;;;;;;16.94;100.00;100639.91;5052960;28;20637;-74
2021/09/11 04:09:54;;;;;;;53.73;30.33;;;;;;;16.94;100.00;100638.06;5053003;28;20191;-74
2021/09/11 04:12:20;;;;;;;48.07;30.13;;;;;;;16.98;100.00;100636.84;5053138;28;20190;-74
2021/09/11 04:14:45;;;;;;;55.30;32.33;;;;;;;17.01;100.00;100641.13;5053010;28;20622;-75
2021/09/11 04:17:10;;;;;;;47.23;31.13;;;;;;;17.05;100.00;100646.13;5036316;28;20191;-75
2021/09/11 04:19:36;;;;;;;42.87;31.10;;;;;;;17.10;100.00;100653.88;5052669;28;20211;-74
2021/09/11 04:22:01;;;;;;;47.37;30.70;;;;;;;17.08;100.00;100648.56;5057588;28;20176;-74
2021/09/11 04:24:26;;;;;;;50.20;31.10;;;;;;;17.11;100.00;100648.34;5037594;28;20210;-74
2021/09/11 04:26:53;;;;;;;49.73;29.63;;;;;;;17.15;100.00;100641.72;5036247;28;20176;-75
2021/09/11 04:29:18;;;;;;;44.47;28.97;;;;;;;17.18;100.00;100649.53;5053840;28;20542;-74
2021/09/11 04:31:43;;;;;;;41.30;28.03;;;;;;;17.28;100.00;100635.28;5055308;28;20175;-74
2021/09/11 04:34:09;;;;;;;37.87;28.43;;;;;;;17.33;100.00;100639.28;5041836;28;20176;-74
2021/09/11 04:36:34;;;;;;;39.97;30.57;;;;;;;17.33;100.00;100630.34;5064273;28;20171;-75
2021/09/11 04:38:59;;;;;;;45.67;31.47;;;;;;;17.40;100.00;100634.22;5060146;28;20206;-75
2021/09/11 04:41:25;;;;;;;41.90;31.93;;;;;;;17.41;100.00;100631.41;5059744;28;20172;-73
2021/09/11 04:43:50;;;;;;;43.87;30.97;;;;;;;17.42;100.00;100632.25;5063182;28;20195;-75
2021/09/11 04:46:15;;;;;;;39.57;28.10;;;;;;;17.41;100.00;100635.94;5040333;28;20175;-75
2021/09/11 04:48:40;;;;;;;38.20;28.10;;;;;;;17.45;100.00;100640.09;5037589;28;20540;-74
2021/09/11 04:51:06;;;;;;;35.30;26.43;;;;;;;17.39;100.00;100633.38;5022256;28;20195;-75
2021/09/11 04:53:31;;;;;;;32.03;26.93;;;;;;;17.43;100.00;100640.22;5054913;28;20198;-74
2021/09/11 04:55:56;;;;;;;38.80;26.50;;;;;;;17.44;100.00;100651.88;5039619;28;20251;-73
2021/09/11 04:58:22;;;;;;;34.63;25.30;;;;;;;17.46;100.00;100644.50;5037677;28;20540;-74
2021/09/11 05:00:47;;;;;;;32.80;26.23;;;;;;;17.46;100.00;100645.34;5056792;28;20191;-73
2021/09/11 05:03:12;;;;;;;34.67;25.17;;;;;;;17.47;100.00;100640.84;5042484;28;20237;-72
2021/09/11 05:05:38;;;;;;;36.80;26.20;;;;;;;17.47;100.00;100647.09;5062193;28;20196;-74
2021/09/11 05:08:03;;;;;;;31.27;25.50;;;;;;;17.50;100.00;100654.06;5062406;28;20241;-75
2021/09/11 05:10:29;;;;;;;33.53;25.87;;;;;;;17.55;100.00;100656.38;5054066;28;20206;-76
2021/09/11 05:12:54;;;;;;;36.50;27.63;;;;;;;17.53;100.00;100658.34;5038643;28;20171;-75
2021/09/11 05:15:20;;;;;;;36.10;29.43;;;;;;;17.56;100.00;100663.50;5061538;28;20175;-74
2021/09/11 05:17:46;;;;;;;38.93;27.93;;;;;;;17.53;100.00;100661.91;5058354;28;20164;-74
2021/09/11 05:20:12;;;;;;;38.60;28.03;;;;;;;17.53;100.00;100669.16;5088553;22;20300;-73
2021/09/11 05:22:38;;;;;;;37.10;27.30;;;;;;;17.52;100.00;100660.19;5056489;28;20167;-74
2021/09/11 05:25:07;;;;;;;47.40;29.53;;;;;;;17.44;100.00;100670.75;5074212;28;20195;-74
2021/09/11 05:27:32;;;;;;;39.07;28.47;;;;;;;17.32;100.00;100675.34;5057334;28;20186;-74
2021/09/11 05:29:58;;;;;;;35.40;25.93;;;;;;;17.23;100.00;100677.97;5057490;28;20194;-73
2021/09/11 05:32:23;;;;;;;33.63;26.10;;;;;;;17.36;100.00;100674.09;5075801;28;20190;-73
2021/09/11 05:34:48;;;;;;;35.07;26.37;;;;;;;17.39;100.00;100675.69;5075088;28;20636;-73
2021/09/11 05:37:14;;;;;;;41.43;27.73;;;;;;;17.41;100.00;100676.41;5075529;28;20233;-74
2021/09/11 05:39:39;;;;;;;39.53;27.70;;;;;;;17.30;100.00;100681.84;5056950;28;20227;-74
2021/09/11 05:42:04;;;;;;;45.07;28.47;;;;;;;17.45;100.00;100680.56;5076990;28;20190;-73
2021/09/11 05:44:30;;;;;;;37.07;26.87;;;;;;;17.43;100.00;100685.22;5076923;28;20201;-73
2021/09/11 05:46:55;;;;;;;38.40;28.00;;;;;;;17.45;100.00;100686.81;5040622;28;20634;-74
2021/09/11 05:49:20;;;;;;;39.90;28.53;;;;;;;17.43;100.00;100691.47;5074468;28;20171;-73
2021/09/11 05:51:46;;;;;;;40.77;28.03;;;;;;;17.54;100.00;100690.59;5040764;28;20280;-74
2021/09/11 05:54:11;;;;;;;35.83;26.37;;;;;;;17.56;100.00;100702.13;5074557;28;20174;-74
2021/09/11 05:56:36;;;;;;;37.27;27.87;;;;;;;17.56;100.00;100694.03;5075508;28;20181;-74
2021/09/11 05:59:02;;;;;;;38.57;28.93;;;;;;;17.62;100.00;100708.84;5075360;28;20175;-74
2021/09/11 06:01:27;;;;;;;46.23;29.60;;;;;;;17.67;100.00;100706.66;5056713;28;20195;-74
2021/09/11 06:03:52;;;;;;;42.50;30.63;;;;;;;17.69;100.00;100710.06;5057380;28;20199;-75
2021/09/11 06:06:17;;;;;;;44.23;28.90;;;;;;;17.69;100.00;100705.53;5075122;28;20179;-73
2021/09/11 06:08:43;;;;;;;46.63;29.03;;;;;;;17.70;100.00;100712.63;5075278;28;20178;-74
2021/09/11 06:11:08;;;;;;;39.17;27.33;;;;;;;17.66;100.00;100711.16;5057308;28;20252;-74
2021/09/11 06:13:34;;;;;;;52.07;29.47;;;;;;;17.65;100.00;100719.38;5075156;28;20175;-74
2021/09/11 06:16:02;;;;;;;43.00;30.77;;;;;;;17.66;100.00;100721.09;5056787;28;20167;-74
2021/09/11 06:18:27;;;;;;;45.17;28.53;;;;;;;17.66;100.00;100721.94;5057149;28;20575;-74
2021/09/11 06:20:53;;;;;;;42.83;29.17;;;;;;;17.68;100.00;100729.94;5056758;28;20680;-75
2021/09/11 06:23:18;;;;;;;45.77;29.77;;;;;;;17.72;100.00;100726.84;5066528;28;20175;-74
2021/09/11 06:25:43;;;;;;;64.87;44.10;;;;;;;17.74;100.00;100727.56;5072524;28;20195;-74
2021/09/11 06:28:08;;;;;;;52.17;36.20;;;;;;;17.71;100.00;100730.53;5085970;28;20175;-74
2021/09/11 06:30:34;;;;;;;42.50;28.20;;;;;;;17.80;100.00;100729.75;5075588;28;20190;-74
2021/09/11 06:32:59;;;;;;;41.83;28.40;;;;;;;17.89;100.00;100732.69;5074059;28;20649;-74
2021/09/11 06:35:24;;;;;;;36.67;28.20;;;;;;;17.92;100.00;100732.44;5074425;28;20167;-74
2021/09/11 06:37:51;;;;;;;44.67;28.30;;;;;;;17.93;100.00;100726.03;5059198;28;20171;-73
2021/09/11 06:40:17;;;;;;;37.70;27.10;;;;;;;17.91;100.00;100725.31;5043696;28;20195;-75
2021/09/11 06:42:42;;;;;;;46.60;26.97;;;;;;;18.01;100.00;100737.88;5077388;28;20698;-75
2021/09/11 06:45:08;;;;;;;33.00;24.63;;;;;;;18.04;100.00;100725.97;5042073;28;20316;-75
2021/09/11 06:47:33;;;;;;;34.33;25.27;;;;;;;18.07;100.00;100728.41;5060932;28;20167;-74
2021/09/11 06:49:58;;;;;;;34.40;24.53;;;;;;;18.09;100.00;100731.81;5063009;28;20201;-74
2021/09/11 06:52:24;;;;;;;28.53;23.67;;;;;;;18.13;100.00;100730.56;5079221;28;20167;-74
2021/09/11 06:54:49;;;;;;;30.33;23.87;;;;;;;18.20;100.00;100737.16;5060918;28;20194;-74
2021/09/11 06:57:14;;;;;;;28.00;22.37;;;;;;;18.24;100.00;100732.38;5076121;28;20171;-75
2021/09/11 06:59:40;;;;;;;27.50;22.07;;;;;;;18.28;100.00;100740.06;5041530;28;20191;-75
2021/09/11 07:02:05;;;;;;;36.03;24.63;;;;;;;18.31;100.00;100729.00;5076200;28;20171;-74
2021/09/11 07:04:30;;;;;;;26.47;21.10;;;;;;;18.43;100.00;100733.31;5076063;28;20224;-74
2021/09/11 07:06:55;;;;;;;34.50;26.13;;;;;;;18.53;100.00;100733.34;5058262;28;20245;-75
2021/09/11 07:09:21;;;;;;;28.13;21.40;;;;;;;18.58;100.00;100735.66;5076288;28;20182;-74
2021/09/11 07:11:46;;;;;;;25.07;19.37;;;;;;;18.76;100.00;100738.63;5076862;28;20178;-74
2021/09/11 07:14:13;;;;;;;23.73;17.87;;;;;;;18.79;100.00;100743.75;5076870;28;20177;-74
2021/09/11 07:16:38;;;;;;;24.23;19.27;;;;;;;18.96;100.00;100748.53;5076191;28;20174;-75
2021/09/11 07:19:04;;;;;;;23.70;18.77;;;;;;;18.94;100.00;100751.34;5076080;28;20525;-74
2021/09/11 07:21:29;;;;;;;20.67;17.30;;;;;;;19.02;100.00;100748.84;5075587;28;20203;-75
2021/09/11 07:23:54;;;;;;;22.60;17.53;;;;;;;19.01;100.00;100746.28;5076031;28;20268;-75
2021/09/11 07:26:19;;;;;;;21.10;16.70;;;;;;;19.09;100.00;100753.69;5040996;28;20624;-75
2021/09/11 07:28:46;;;;;;;20.57;16.60;;;;;;;19.17;100.00;100746.59;5041487;28;20167;-75
2021/09/11 07:31:12;;;;;;;16.73;14.50;;;;;;;19.34;100.00;100755.91;5076253;28;20199;-75
2021/09/11 07:33:37;;;;;;;19.80;16.50;;;;;;;19.39;100.00;100763.63;5041404;28;20544;-74
2021/09/11 07:36:03;;;;;;;16.47;14.77;;;;;;;19.55;100.00;100764.81;5058246;28;20170;-75
2021/09/11 07:38:28;;;;;;;17.93;13.90;;;;;;;19.73;100.00;100764.97;5058229;28;20190;-75
2021/09/11 07:40:53;;;;;;;17.63;14.23;;;;;;;19.84;100.00;100780.22;5059099;28;20198;-75
2021/09/11 07:43:18;;;;;;;15.53;13.90;;;;;;;20.03;100.00;100773.94;5075375;28;20702;-75
2021/09/11 07:45:44;;;;;;;16.00;14.33;;;;;;;20.12;100.00;100773.94;5074981;28;20195;-74
2021/09/11 07:48:09;;;;;;;16.87;14.37;;;;;;;20.10;100.00;100778.66;5056148;28;20179;-74
2021/09/11 07:50:37;;;;;;;14.87;13.27;;;;;;;20.21;100.00;100780.34;5057382;28;20199;-75
2021/09/11 07:53:03;;;;;;;15.90;12.80;;;;;;;20.24;100.00;100789.03;5057933;28;20232;-75
2021/09/11 07:55:30;;;;;;;15.00;12.57;;;;;;;20.20;100.00;100782.22;5056900;28;20539;-75
2021/09/11 07:57:55;;;;;;;16.03;11.80;;;;;;;20.21;100.00;100783.91;5056836;28;20659;-73
2021/09/11 08:00:20;;;;;;;13.63;12.23;;;;;;;20.34;100.00;100799.00;5056978;28;20187;-74
2021/09/11 08:02:46;;;;;;;16.23;12.50;;;;;;;20.26;100.00;100783.47;5057237;28;20182;-74
2021/09/11 08:05:11;;;;;;;14.87;12.53;;;;;;;20.32;100.00;100793.75;5056749;28;20580;-74
2021/09/11 08:07:37;;;;;;;13.77;11.07;;;;;;;20.43;100.00;100792.75;5074682;28;20510;-74
2021/09/11 08:10:02;;;;;;;12.07;10.20;;;;;;;20.40;100.00;100793.03;5074406;28;20195;-74
2021/09/11 08:12:27;;;;;;;12.27;10.07;;;;;;;20.46;100.00;100804.19;5057404;28;20639;-74
2021/09/11 08:14:53;;;;;;;9.37;8.37;;;;;;;20.56;100.00;100802.31;5075248;28;20167;-74
2021/09/11 08:17:18;;;;;;;10.33;8.80;;;;;;;20.76;100.00;100794.94;5075269;28;20670;-74
2021/09/11 08:19:44;;;;;;;7.53;6.83;;;;;;;20.69;100.00;100804.69;5074501;28;20249;-74
2021/09/11 08:22:09;;;;;;;7.90;7.10;;;;;;;20.85;100.00;100796.81;5056924;28;20197;-73
2021/09/11 08:24:35;;;;;;;6.87;6.07;;;;;;;21.06;100.00;100791.13;5074555;28;20273;-74
2021/09/11 08:27:00;;;;;;;6.30;5.70;;;;;;;21.11;98.59;100799.69;5074752;28;20170;-73
2021/09/11 08:29:25;;;;;;;6.23;5.63;;;;;;;21.35;97.27;100793.75;5075982;28;20171;-74
2021/09/11 08:31:51;;;;;;;7.07;6.37;;;;;;;21.32;98.67;100801.34;5076278;28;20532;-73
2021/09/11 08:34:16;;;;;;;17.63;15.20;;;;;;;21.34;96.88;100800.19;5057980;28;20175;-73
2021/09/11 08:36:41;;;;;;;6.90;6.20;;;;;;;21.45;97.89;100802.69;5075839;28;20167;-73
2021/09/11 08:39:07;;;;;;;30.30;25.07;;;;;;;21.56;96.55;100803.47;5057405;28;20664;-73
2021/09/11 08:41:33;;;;;;;7.67;6.77;;;;;;;21.60;96.87;100802.19;5039701;28;20673;-73
2021/09/11 08:44:00;;;;;;;8.87;7.97;;;;;;;21.38;98.72;100801.56;5074022;28;20228;-73
2021/09/11 08:46:27;;;;;;;6.23;5.60;;;;;;;21.51;98.32;100804.78;5056183;28;20171;-72
2021/09/11 08:48:52;;;;;;;6.57;5.87;;;;;;;21.60;96.80;100803.03;5055933;28;20539;-72
2021/09/11 08:51:17;;;;;;;7.30;6.27;;;;;;;21.49;96.10;100805.94;5073922;28;20191;-72
2021/09/11 08:53:42;;;;;;;6.60;5.97;;;;;;;21.17;96.89;100809.06;5055990;28;20182;-73
2021/09/11 08:56:08;;;;;;;8.20;6.43;;;;;;;21.18;99.65;100811.63;5055440;28;20178;-73
2021/09/11 08:58:34;;;;;;;11.00;8.60;;;;;;;21.00;100.00;100816.16;5055398;28;20175;-72
2021/09/11 09:01:00;;;;;;;8.37;7.53;;;;;;;20.98;100.00;100818.16;5073706;28;20191;-73
2021/09/11 09:03:39;;;;;;;11.77;10.47;;;;;;;20.99;100.00;100821.72;5073551;28;20549;-73
2021/09/11 09:06:19;;;;;;;10.67;9.57;;;;;;;20.94;100.00;100808.63;5038948;28;20213;-73
2021/09/11 09:08:47;;;;;;;12.93;11.50;;;;;;;20.94;100.00;100821.31;5073606;28;20261;-74
2021/09/11 09:11:29;;;;;;;12.30;10.87;;;;;;;21.07;100.00;100825.41;5055643;28;20191;-73
2021/09/11 09:14:04;;;;;;;12.53;10.47;;;;;;;21.60;98.50;100816.63;5055941;28;20226;-73
2021/09/11 09:16:33;;;;;;;14.40;10.07;;;;;;;21.74;95.91;100821.50;5056054;28;20159;-72
2021/09/11 09:19:02;;;;;;;12.30;10.10;;;;;;;21.74;94.62;100817.94;5055559;28;20167;-73
2021/09/11 09:21:30;;;;;;;12.27;9.90;;;;;;;21.75;94.52;100830.50;5055404;28;20199;-73
2021/09/11 09:23:57;;;;;;;12.60;10.40;;;;;;;21.65;95.04;100818.88;5073584;28;20202;-73
2021/09/11 09:26:24;;;;;;;10.93;9.83;;;;;;;21.68;95.97;100824.84;5041703;28;20269;-74
2021/09/11 09:29:03;;;;;;;10.70;9.57;;;;;;;21.51;95.88;100821.06;5057423;28;20548;-73
2021/09/11 09:31:28;;;;;;;12.37;10.80;;;;;;;21.08;97.81;100832.53;5073349;28;20205;-73
2021/09/11 09:33:54;;;;;;;13.30;11.13;;;;;;;20.75;99.20;100831.22;5073211;28;20171;-72
2021/09/11 09:36:19;;;;;;;12.40;11.20;;;;;;;20.51;100.00;100825.44;5073699;28;20254;-73
2021/09/11 09:38:44;;;;;;;14.20;10.80;;;;;;;20.56;100.00;100829.41;5073823;28;20179;-73
2021/09/11 09:41:11;;;;;;;12.23;10.83;;;;;;;20.64;100.00;100825.97;5073543;28;20268;-73
2021/09/11 09:43:43;;;;;;;12.37;11.03;;;;;;;20.55;100.00;100824.13;5074949;28;20521;-73
2021/09/11 09:46:16;;;;;;;13.27;10.77;;;;;;;20.54;100.00;100822.44;5055400;28;20166;-73
2021/09/11 09:48:44;;;;;;;19.00;16.37;;;;;;;20.42;100.00;100834.41;5055544;28;20159;-73
2021/09/11 09:51:14;;;;;;;16.37;12.73;;;;;;;20.26;100.00;100835.84;5073084;28;20214;-73
2021/09/11 09:53:42;;;;;;;12.13;10.10;;;;;;;20.34;100.00;100829.69;5055895;28;20250;-73
2021/09/11 09:56:08;;;;;;;13.33;11.47;;;;;;;20.39;100.00;100834.66;5055898;28;20171;-73
2021/09/11 09:58:34;;;;;;;11.50;10.30;;;;;;;20.42;100.00;100831.69;5073516;28;20190;-72
2021/09/11 10:01:00;;;;;;;13.20;10.03;;;;;;;20.37;100.00;100828.53;5055146;28;20206;-72
2021/09/11 10:03:25;;;;;;;12.00;10.50;;;;;;;20.55;100.00;100827.72;5056443;28;20489;-74
2021/09/11 10:06:12;;;;;;;12.23;10.80;;;;;;;20.76;100.00;100829.34;5061567;28;20199;-73
2021/09/11 10:08:44;;;;;;;10.63;9.40;;;;;;;20.86;100.00;100831.06;5069564;28;20179;-73
2021/09/11 10:11:12;;;;;;;10.53;9.43;;;;;;;20.96;100.00;100825.59;5067478;28;20194;-73
2021/09/11 10:13:38;;;;;;;12.17;10.97;;;;;;;20.84;99.42;100818.66;5086600;28;20645;-73
2021/09/11 10:16:06;;;;;;;12.63;10.77;;;;;;;21.16;98.97;100815.50;5060811;28;20175;-74
2021/09/11 10:18:34;;;;;;;13.20;11.40;;;;;;;21.44;95.57;100819.13;5059085;28;20175;-72
2021/09/11 10:21:22;;;;;;;13.03;11.57;;;;;;;21.76;93.67;100818.63;5058523;28;20211;-73
2021/09/11 10:23:56;;;;;;;12.20;10.90;;;;;;;21.93;92.42;100817.81;5076755;28;20177;-73
2021/09/11 10:26:46;;;;;;;12.13;10.70;;;;;;;22.01;91.45;100817.88;5059874;28;20681;-72
2021/09/11 10:29:30;;;;;;;14.23;10.93;;;;;;;21.78;92.37;100808.47;5077283;28;20250;-72
2021/09/11 10:31:56;;;;;;;11.77;10.57;;;;;;;21.77;91.57;100817.63;5058347;28;20186;-74
2021/09/11 10:34:51;;;;;;;14.37;11.77;;;;;;;21.82;87.83;100810.72;5058321;28;20175;-72
2021/09/11 10:37:29;;;;;;;7.70;6.90;;;;;;;22.60;83.08;100810.91;5077014;28;20613;-74
2021/09/11 10:40:33;;;;;;;9.50;7.80;;;;;;;22.66;82.90;100813.00;5041894;28;20194;-72
2021/09/11 10:43:05;;;;;;;9.60;7.03;;;;;;;22.38;83.49;100816.88;5076160;28;20179;-72
2021/09/11 10:45:46;;;;;;;8.27;6.00;;;;;;;22.17;84.99;100809.06;5076436;28;20190;-72
2021/09/11 10:48:36;;;;;;;7.03;6.33;;;;;;;21.98;85.75;100810.03;5076220;28;20163;-73
2021/09/11 10:51:27;;;;;;;8.20;7.40;;;;;;;21.99;86.09;100822.63;5076065;28;20190;-72
2021/09/11 10:54:13;;;;;;;7.47;6.77;;;;;;;21.95;86.47;100817.66;5058604;28;20209;-72
2021/09/11 10:57:04;;;;;;;7.70;6.97;;;;;;;21.80;86.19;100811.88;5058322;28;20611;-72
2021/09/11 10:59:41;;;;;;;9.70;8.20;;;;;;;21.77;87.51;100812.19;5077160;28;20190;-72
2021/09/11 11:02:33;;;;;;;7.53;6.83;;;;;;;21.88;86.90;100808.38;5058051;28;20242;-72
2021/09/11 11:05:06;;;;;;;8.03;7.07;;;;;;;21.75;87.02;100806.06;5058117;28;20195;-73